Time;durP1;ratioP1;P1;durP2;ratioP2;P2;SDS_P1;SDS_P2;PMS_P1;PMS_P2;Temp;Humidity;BMP_temperature;BMP_pressure;BME280_temperature;BME280_humidity;BME280_pressure;Samples;Min_cycle;Max_cycle;Signal;HPM_P1;HPM_P2
2022/07/29 05:11:18;;;;;;;5.55;1.77;;;14.80;99.90;;;;;;4977339;28;20407;-84
2022/07/29 05:13:44;;;;;;;3.20;1.60;;;14.80;99.90;;;;;;4961007;28;20081;-83
2022/07/29 05:16:10;;;;;;;3.85;1.75;;;14.80;99.90;;;;;;4961071;28;20459;-82
2022/07/29 05:18:36;;;;;;;8.48;1.98;;;14.80;99.90;;;;;;4960665;28;20125;-83
2022/07/29 05:21:02;;;;;;;6.47;2.03;;;14.80;99.90;;;;;;4977584;28;20478;-83
2022/07/29 05:23:28;;;;;;;3.47;1.60;;;14.80;99.90;;;;;;4960219;28;20446;-82
2022/07/29 05:25:53;;;;;;;3.88;1.50;;;14.80;99.90;;;;;;4977551;28;20035;-83
2022/07/29 05:28:19;;;;;;;5.45;1.73;;;14.80;99.90;;;;;;4976960;28;20081;-84
2022/07/29 05:30:45;;;;;;;5.82;1.80;;;14.80;99.90;;;;;;4976181;28;20046;-83
2022/07/29 05:33:11;;;;;;;2.88;1.70;;;14.90;99.90;;;;;;4975643;28;20054;-83
2022/07/29 05:35:37;;;;;;;5.22;1.70;;;14.90;99.90;;;;;;4959902;28;20111;-84
2022/07/29 05:38:03;;;;;;;3.88;1.63;;;14.90;99.90;;;;;;4975762;28;20490;-84
2022/07/29 05:40:29;;;;;;;4.50;1.50;;;14.90;99.90;;;;;;4975646;28;20073;-84
2022/07/29 05:42:55;;;;;;;7.63;1.73;;;14.90;99.90;;;;;;4975994;28;20042;-83
2022/07/29 05:45:21;;;;;;;2.67;1.65;;;14.90;99.90;;;;;;4959673;28;20053;-84
2022/07/29 05:47:47;;;;;;;4.88;1.77;;;15.00;99.90;;;;;;4975534;28;20051;-83
2022/07/29 05:50:12;;;;;;;6.30;1.70;;;15.00;99.90;;;;;;4975299;28;20050;-84
2022/07/29 05:52:38;;;;;;;3.35;1.75;;;15.00;99.90;;;;;;4977503;28;20094;-83
2022/07/29 05:55:05;;;;;;;6.43;1.70;;;15.10;99.90;;;;;;4978543;28;20047;-80
2022/07/29 05:57:31;;;;;;;2.90;1.70;;;15.10;99.90;;;;;;4959988;28;20038;-84
2022/07/29 05:59:57;;;;;;;4.47;1.73;;;15.10;99.90;;;;;;4976112;28;20380;-83
2022/07/29 06:02:23;;;;;;;7.65;2.13;;;15.20;99.90;;;;;;4975271;28;20058;-83
2022/07/29 06:04:49;;;;;;;3.35;1.58;;;15.20;99.90;;;;;;4975494;28;20043;-81
2022/07/29 06:07:16;;;;;;;3.30;1.65;;;15.20;99.90;;;;;;4975776;28;20435;-84
2022/07/29 06:09:42;;;;;;;5.57;1.58;;;15.30;99.90;;;;;;4976568;28;20062;-84
2022/07/29 06:12:08;;;;;;;5.60;1.83;;;15.30;99.90;;;;;;4959541;28;20046;-85
2022/07/29 06:14:35;;;;;;;4.18;1.80;;;15.40;99.90;;;;;;4976301;28;20066;-87
2022/07/29 06:17:01;;;;;;;4.45;1.70;;;15.40;99.90;;;;;;4975304;28;20060;-84
2022/07/29 06:19:27;;;;;;;4.35;1.80;;;15.50;99.90;;;;;;4975457;28;20173;-84
2022/07/29 06:21:52;;;;;;;8.02;2.47;;;15.50;99.90;;;;;;4975123;28;20126;-85
2022/07/29 06:24:18;;;;;;;7.10;1.88;;;15.60;99.90;;;;;;4975766;28;20042;-86
2022/07/29 06:26:44;;;;;;;6.25;2.10;;;15.70;99.90;;;;;;4976503;28;20090;-85
2022/07/29 06:29:10;;;;;;;3.92;2.00;;;15.70;99.90;;;;;;4975457;28;20505;-85
2022/07/29 06:31:39;;;;;;;4.32;1.85;;;15.80;99.90;;;;;;4958859;28;20051;-82
2022/07/29 06:34:07;;;;;;;4.90;1.70;;;15.80;99.90;;;;;;4975711;28;20046;-84
2022/07/29 06:36:37;;;;;;;4.90;1.67;;;15.90;99.90;;;;;;4974861;28;20109;-82
2022/07/29 06:39:07;;;;;;;7.20;1.73;;;15.90;99.90;;;;;;4976121;28;20034;-85
2022/07/29 06:41:33;;;;;;;4.68;1.80;;;15.90;99.90;;;;;;4974565;28;20116;-85
2022/07/29 06:43:59;;;;;;;4.40;1.67;;;16.00;99.90;;;;;;4974810;28;20100;-84
2022/07/29 06:46:24;;;;;;;7.90;1.85;;;16.00;99.90;;;;;;4974593;28;20478;-86
2022/07/29 06:48:51;;;;;;;4.50;1.58;;;16.10;99.90;;;;;;4974738;28;20053;-84
2022/07/29 06:51:17;;;;;;;7.90;1.95;;;16.00;99.90;;;;;;4974865;28;20043;-84
2022/07/29 06:53:42;;;;;;;5.75;2.00;;;16.10;99.90;;;;;;4974770;28;20042;-84
2022/07/29 06:56:08;;;;;;;4.85;1.65;;;16.10;99.90;;;;;;4975088;28;20038;-84
2022/07/29 06:58:35;;;;;;;5.03;1.50;;;16.20;99.90;;;;;;4974910;28;20494;-85
2022/07/29 07:01:03;;;;;;;3.70;1.90;;;16.20;99.90;;;;;;4976168;28;20078;-83
2022/07/29 07:03:29;;;;;;;6.13;2.00;;;16.30;99.90;;;;;;4975984;28;20074;-83
2022/07/29 07:05:55;;;;;;;4.85;1.70;;;16.30;99.90;;;;;;4968623;28;20039;-84
2022/07/29 07:08:22;;;;;;;5.53;1.70;;;16.40;99.90;;;;;;4975627;28;20042;-85
2022/07/29 07:10:48;;;;;;;4.75;2.08;;;16.40;99.90;;;;;;4974282;28;20042;-84
2022/07/29 07:13:14;;;;;;;3.65;1.70;;;16.40;99.90;;;;;;4954881;29;20047;-84
2022/07/29 07:15:40;;;;;;;6.25;1.75;;;16.50;99.90;;;;;;4955836;29;20038;-83
2022/07/29 07:18:07;;;;;;;3.03;1.48;;;16.50;99.90;;;;;;4956284;28;20542;-84
2022/07/29 07:23:31;;;;;;;;;;;16.50;99.90;;;;;;5028795;23;20055;-86
2022/07/29 07:29:45;;;;;;;4.57;1.50;;;16.40;99.90;;;;;;4946700;28;20047;-85
2022/07/29 07:32:12;;;;;;;4.15;1.95;;;16.50;99.90;;;;;;4955781;29;20047;-86
2022/07/29 07:34:38;;;;;;;8.27;1.85;;;16.40;99.90;;;;;;4955128;29;20475;-83
2022/07/29 07:37:20;;;;;;;;;;;;;;;;;;;;;
2022/07/29 07:39:49;;;;;;;5.65;1.88;;;16.40;99.90;;;;;;4953832;29;20043;-83
2022/07/29 07:42:15;;;;;;;5.22;2.30;;;16.30;99.90;;;;;;4954961;29;20061;-84
2022/07/29 07:44:41;;;;;;;4.57;1.95;;;16.30;99.90;;;;;;4957013;28;20483;-86
2022/07/29 07:47:06;;;;;;;5.88;1.95;;;16.30;99.90;;;;;;4956163;28;20044;-84
2022/07/29 07:49:32;;;;;;;5.80;2.55;;;16.30;99.90;;;;;;4955163;29;20047;-84
2022/07/29 07:51:57;;;;;;;6.80;1.88;;;16.30;99.90;;;;;;4955796;28;20376;-84
2022/07/29 07:54:23;;;;;;;4.63;2.10;;;16.30;99.90;;;;;;4955075;28;20047;-85
2022/07/29 07:56:49;;;;;;;5.72;1.90;;;16.20;99.90;;;;;;4960006;29;20094;-84
2022/07/29 07:59:16;;;;;;;5.35;2.00;;;16.20;99.90;;;;;;4960613;28;20081;-84
2022/07/29 08:01:42;;;;;;;7.00;2.20;;;16.10;99.90;;;;;;4958435;29;20062;-83
2022/07/29 08:04:08;;;;;;;7.25;2.20;;;16.10;99.90;;;;;;4958135;29;20047;-85
2022/07/29 08:06:37;;;;;;;7.82;2.10;;;16.10;99.90;;;;;;4959283;29;20082;-85
2022/07/29 08:09:03;;;;;;;5.68;1.90;;;16.10;99.90;;;;;;4958370;29;20051;-85
2022/07/29 08:11:29;;;;;;;5.90;2.10;;;16.10;99.90;;;;;;4960337;28;20149;-85
2022/07/29 08:13:55;;;;;;;3.80;2.10;;;16.10;99.90;;;;;;4960108;28;20499;-85
2022/07/29 08:16:21;;;;;;;6.82;2.45;;;16.10;99.90;;;;;;4958563;29;20046;-85
2022/07/29 08:18:47;;;;;;;7.85;2.38;;;16.10;99.90;;;;;;4942272;29;20124;-87
2022/07/29 08:21:15;;;;;;;5.43;1.80;;;16.10;99.90;;;;;;4958046;29;20102;-86
2022/07/29 08:23:50;;;;;;;4.38;2.00;;;16.10;99.90;;;;;;4942513;29;20220;-86
2022/07/29 08:26:16;;;;;;;;;;;16.10;99.90;;;;;;4942956;29;20036;-83
2022/07/29 08:28:45;;;;;;;6.50;2.00;;;16.10;99.90;;;;;;4942599;29;19929;-84
2022/07/29 08:31:12;;;;;;;6.03;2.55;;;16.20;99.90;;;;;;4942107;29;20047;-85
2022/07/29 08:33:38;;;;;;;8.25;2.80;;;16.20;99.90;;;;;;4958654;29;20059;-84
2022/07/29 08:36:05;;;;;;;4.57;2.47;;;16.30;99.90;;;;;;4943432;29;20387;-84
2022/07/29 08:38:32;;;;;;;5.72;2.42;;;16.30;99.90;;;;;;4943116;29;20039;-86
2022/07/29 08:40:59;;;;;;;9.38;2.63;;;16.40;99.90;;;;;;4959599;28;20403;-86
2022/07/29 08:43:25;;;;;;;4.75;2.13;;;16.50;99.90;;;;;;4958186;29;20054;-84
2022/07/29 08:45:51;;;;;;;5.90;2.40;;;16.50;99.90;;;;;;4958310;29;20051;-85
2022/07/29 08:48:20;;;;;;;7.35;2.20;;;16.60;99.90;;;;;;4958241;29;20043;-84
2022/07/29 08:50:47;;;;;;;6.05;2.20;;;16.70;99.90;;;;;;4942413;29;20086;-87
2022/07/29 08:53:17;;;;;;;7.95;2.35;;;16.80;99.90;;;;;;4958556;29;20534;-85
2022/07/29 08:56:18;;;;;;;5.32;2.22;;;16.90;99.90;;;;;;4942113;29;20036;-85
2022/07/29 08:58:46;;;;;;;6.07;2.40;;;17.00;99.90;;;;;;4943245;29;20051;-84
2022/07/29 09:01:15;;;;;;;5.45;2.38;;;17.10;99.90;;;;;;4957537;29;20047;-85
2022/07/29 09:04:27;;;;;;;4.95;2.20;;;17.20;99.90;;;;;;4957907;29;20050;-87
2022/07/29 09:06:58;;;;;;;6.20;2.05;;;17.30;99.90;;;;;;4940860;29;20474;-87
2022/07/29 09:09:39;;;;;;;6.38;2.30;;;17.40;99.90;;;;;;4957911;29;20051;-85
2022/07/29 09:12:08;;;;;;;5.30;2.15;;;17.50;99.90;;;;;;4941337;29;20047;-86
2022/07/29 09:14:34;;;;;;;4.43;2.30;;;17.60;99.90;;;;;;4941719;29;20043;-84
2022/07/29 09:17:00;;;;;;;6.20;1.95;;;17.80;99.90;;;;;;4958587;29;20388;-84
2022/07/29 09:19:34;;;;;;;5.28;2.00;;;17.80;99.90;;;;;;4957334;29;20046;-86
2022/07/29 09:22:02;;;;;;;7.95;2.05;;;17.90;99.90;;;;;;4957296;29;20047;-84
2022/07/29 09:24:34;;;;;;;7.35;2.50;;;17.90;99.90;;;;;;4958538;28;20035;-84
2022/07/29 09:27:01;;;;;;;5.80;2.47;;;17.90;99.90;;;;;;4957030;29;20491;-84
2022/07/29 09:29:27;;;;;;;5.28;2.25;;;18.00;99.90;;;;;;4957112;28;20513;-85
2022/07/29 09:31:54;;;;;;;5.00;2.40;;;18.00;99.90;;;;;;4956916;29;20086;-85
2022/07/29 09:34:30;;;;;;;3.55;2.20;;;18.00;99.90;;;;;;4956922;29;20106;-83
2022/07/29 09:36:56;;;;;;;5.90;2.50;;;18.00;99.90;;;;;;4940845;29;20483;-84
2022/07/29 09:39:45;;;;;;;6.30;2.40;;;18.00;99.90;;;;;;4956650;29;20078;-82
2022/07/29 09:42:11;;;;;;;5.82;2.53;;;18.10;99.90;;;;;;4957313;29;20047;-85
2022/07/29 09:44:50;;;;;;;5.72;2.38;;;18.00;99.90;;;;;;4956720;29;20475;-83
2022/07/29 09:47:17;;;;;;;6.05;2.47;;;18.00;99.90;;;;;;4956686;29;20047;-83
2022/07/29 09:49:57;;;;;;;7.55;2.70;;;18.00;99.90;;;;;;4956476;29;20427;-86
2022/07/29 09:52:23;;;;;;;4.50;2.50;;;18.10;99.90;;;;;;4940501;29;20045;-83
2022/07/29 09:54:50;;;;;;;6.00;2.42;;;18.10;99.90;;;;;;4940079;29;20050;-81
2022/07/29 09:57:28;;;;;;;11.70;2.75;;;18.20;99.90;;;;;;4956232;29;20484;-82
2022/07/29 09:59:59;;;;;;;8.98;2.63;;;18.30;99.90;;;;;;4940280;29;20053;-81
2022/07/29 10:02:33;;;;;;;6.60;2.58;;;18.40;99.90;;;;;;4956713;29;20121;-84
2022/07/29 10:05:01;;;;;;;12.93;2.90;;;18.70;99.90;;;;;;4956934;29;20385;-80
2022/07/29 10:07:42;;;;;;;7.65;2.58;;;19.00;99.90;;;;;;4957130;29;20043;-82
2022/07/29 10:10:08;;;;;;;6.80;2.58;;;19.30;99.90;;;;;;4956465;29;20058;-84
2022/07/29 10:12:33;;;;;;;5.60;2.50;;;19.50;99.90;;;;;;4957172;29;20062;-87
2022/07/29 10:15:01;;;;;;;6.32;2.90;;;19.60;99.90;;;;;;4958133;28;20043;-82
2022/07/29 10:17:28;;;;;;;5.78;2.40;;;19.70;99.90;;;;;;4958297;28;20050;-83
2022/07/29 10:19:54;;;;;;;7.28;2.30;;;19.90;99.90;;;;;;4955336;29;20518;-82
2022/07/29 10:22:19;;;;;;;5.07;2.40;;;20.30;99.90;;;;;;4956780;29;20043;-83
2022/07/29 10:24:48;;;;;;;8.38;2.65;;;20.70;99.90;;;;;;4959347;28;20118;-84
2022/07/29 10:27:14;;;;;;;8.38;3.35;;;20.90;99.90;;;;;;4957427;28;20118;-79
2022/07/29 10:29:39;;;;;;;5.18;2.38;;;21.10;99.90;;;;;;4957571;28;20438;-81
2022/07/29 10:32:26;;;;;;;10.82;2.88;;;21.00;99.90;;;;;;4955596;29;20073;-83
2022/07/29 10:35:08;;;;;;;4.80;2.35;;;21.10;99.90;;;;;;4955741;29;20043;-85
2022/07/29 10:37:45;;;;;;;6.30;2.60;;;21.10;99.90;;;;;;4957710;29;20054;-85
2022/07/29 10:43:28;;;;;;;7.32;2.55;;;21.00;99.90;;;;;;4955558;29;20502;-82
2022/07/29 10:45:59;;;;;;;9.07;2.40;;;21.10;99.90;;;;;;4955084;29;20126;-85
2022/07/29 10:48:26;;;;;;;6.60;2.40;;;21.20;99.90;;;;;;4956081;29;20475;-87
2022/07/29 10:51:08;;;;;;;7.63;2.65;;;21.20;99.90;;;;;;4940381;29;20079;-85
2022/07/29 10:53:48;;;;;;;5.57;2.40;;;21.30;99.90;;;;;;4955440;29;20368;-85
2022/07/29 10:56:35;;;;;;;5.55;2.50;;;21.30;99.90;;;;;;4955478;29;20047;-85
2022/07/29 10:59:19;;;;;;;10.00;2.95;;;21.40;99.90;;;;;;4940618;29;20039;-85
2022/07/29 11:01:49;;;;;;;7.18;2.78;;;21.60;99.90;;;;;;4940277;29;20083;-81
2022/07/29 11:05:01;;;;;;;5.38;2.15;;;21.70;99.90;;;;;;4939653;29;20058;-81
2022/07/29 11:07:36;;;;;;;7.10;2.28;;;21.90;99.90;;;;;;4955925;29;20078;-84
2022/07/29 11:10:11;;;;;;;8.27;4.35;;;21.90;99.90;;;;;;4939389;29;20043;-86
2022/07/29 11:12:36;;;;;;;7.65;2.10;;;21.90;99.90;;;;;;4955497;29;20047;-83
2022/07/29 11:15:17;;;;;;;7.53;2.83;;;22.00;99.90;;;;;;4955572;29;20403;-84
2022/07/29 11:17:57;;;;;;;6.90;2.65;;;22.00;99.90;;;;;;4956731;28;20475;-86
2022/07/29 11:20:42;;;;;;;6.35;2.25;;;22.00;99.90;;;;;;4955259;29;20046;-82
2022/07/29 11:23:28;;;;;;;6.03;2.53;;;22.20;99.90;;;;;;4956451;28;20054;-86
2022/07/29 11:26:25;;;;;;;8.23;2.50;;;22.30;99.90;;;;;;4955410;29;20070;-85
2022/07/29 11:29:16;;;;;;;4.65;2.15;;;22.30;99.90;;;;;;4956700;28;20058;-84
2022/07/29 11:31:45;;;;;;;6.05;2.05;;;22.40;99.90;;;;;;4955439;29;20051;-85
2022/07/29 11:34:18;;;;;;;5.45;2.20;;;22.50;99.90;;;;;;4939599;29;20047;-84
2022/07/29 11:37:20;;;;;;;6.10;2.20;;;22.60;99.90;;;;;;4954978;29;20578;-85
2022/07/29 11:40:07;;;;;;;5.80;2.15;;;22.80;99.90;;;;;;4953907;29;20050;-85
2022/07/29 11:42:34;;;;;;;4.75;2.20;;;22.90;99.90;;;;;;4954612;29;20047;-86
2022/07/29 11:45:13;;;;;;;7.55;2.38;;;23.10;99.90;;;;;;4940061;29;20047;-86
2022/07/29 11:47:47;;;;;;;8.30;2.15;;;23.20;99.90;;;;;;4939960;29;20043;-86
2022/07/29 11:50:16;;;;;;;8.93;2.75;;;23.40;99.90;;;;;;4940940;29;20126;-85
2022/07/29 11:52:47;;;;;;;4.55;2.00;;;23.50;99.90;;;;;;4941369;29;20048;-86
2022/07/29 11:55:19;;;;;;;3.85;1.95;;;23.50;99.90;;;;;;4962434;28;20038;-86
2022/07/29 11:57:56;;;;;;;10.23;2.63;;;23.70;99.90;;;;;;4961999;29;20047;-81
2022/07/29 12:00:25;;;;;;;9.25;2.20;;;23.90;99.90;;;;;;4970996;28;20050;-80
2022/07/29 12:02:51;;;;;;;6.75;2.00;;;24.00;99.90;;;;;;4967320;29;20471;-79
2022/07/29 12:05:17;;;;;;;7.85;1.75;;;24.20;99.90;;;;;;4968319;29;20054;-82
2022/07/29 12:07:43;;;;;;;5.65;2.03;;;24.40;99.90;;;;;;4962059;29;20043;-84
2022/07/29 12:10:09;;;;;;;6.45;1.88;;;24.30;99.90;;;;;;4958910;29;20047;-84
2022/07/29 12:12:35;;;;;;;7.45;2.20;;;24.50;99.90;;;;;;4957614;29;20105;-85
2022/07/29 12:15:12;;;;;;;5.72;1.88;;;24.50;99.90;;;;;;4940514;29;20051;-85
2022/07/29 12:17:39;;;;;;;4.75;2.00;;;24.40;99.90;;;;;;4955093;29;20095;-85
2022/07/29 12:20:06;;;;;;;7.00;2.08;;;24.40;99.90;;;;;;4955868;29;20039;-87
2022/07/29 12:22:37;;;;;;;8.32;2.10;;;24.30;99.90;;;;;;4955363;29;20097;-86
2022/07/29 12:25:09;;;;;;;7.65;1.67;;;24.20;99.90;;;;;;4955904;29;20043;-83
2022/07/29 12:27:36;;;;;;;7.07;1.85;;;24.10;99.90;;;;;;4954279;29;20046;-83
2022/07/29 12:30:07;;;;;;;8.63;1.98;;;24.10;99.90;;;;;;4955763;28;20499;-86
2022/07/29 12:32:44;;;;;;;8.63;2.03;;;24.10;99.90;;;;;;4955089;29;20137;-84
2022/07/29 12:35:15;;;;;;;7.47;1.60;;;24.00;99.90;;;;;;4955757;28;20043;-84
2022/07/29 12:37:43;;;;;;;8.07;2.38;;;24.00;99.90;;;;;;4955061;29;20443;-84
2022/07/29 12:40:12;;;;;;;9.88;2.33;;;24.00;99.90;;;;;;4954596;29;20048;-87
2022/07/29 12:42:39;;;;;;;6.70;2.20;;;24.10;99.90;;;;;;4940854;29;20043;-83
2022/07/29 12:45:05;;;;;;;5.22;2.20;;;24.40;99.90;;;;;;4957972;29;20039;-86
2022/07/29 12:47:31;;;;;;;9.93;1.90;;;24.70;99.90;;;;;;4942189;29;20102;-83
2022/07/29 12:50:17;;;;;;;5.03;1.90;;;24.90;99.90;;;;;;4958473;29;20086;-81
2022/07/29 12:52:44;;;;;;;5.65;2.00;;;25.30;99.90;;;;;;4958194;29;20098;-86
2022/07/29 12:55:10;;;;;;;7.22;2.03;;;25.20;99.90;;;;;;4959530;28;20039;-83
2022/07/29 12:58:05;;;;;;;5.45;1.92;;;25.20;99.90;;;;;;4958715;28;20070;-84
2022/07/29 13:00:31;;;;;;;7.00;2.22;;;25.30;99.90;;;;;;4953705;29;20114;-84
2022/07/29 13:02:58;;;;;;;4.22;1.60;;;25.40;99.90;;;;;;4959079;28;20085;-83
2022/07/29 13:05:39;;;;;;;6.28;1.50;;;25.50;99.90;;;;;;4958164;29;20442;-83
2022/07/29 13:08:16;;;;;;;7.15;1.88;;;25.70;99.90;;;;;;4957832;29;20050;-83
2022/07/29 13:10:42;;;;;;;5.72;1.60;;;25.90;99.90;;;;;;4957407;29;20071;-86
2022/07/29 13:13:11;;;;;;;6.47;1.70;;;26.00;99.40;;;;;;4957710;29;20553;-84
2022/07/29 13:15:39;;;;;;;6.47;1.80;;;26.00;99.50;;;;;;4957524;29;20043;-83
2022/07/29 13:18:05;;;;;;;6.25;1.98;;;26.10;99.70;;;;;;4957502;29;20063;-84
2022/07/29 13:20:31;;;;;;;3.00;1.48;;;26.10;98.80;;;;;;4941120;29;20543;-86
2022/07/29 13:23:00;;;;;;;6.60;1.95;;;26.00;98.30;;;;;;4942518;29;20118;-86
2022/07/29 13:25:31;;;;;;;5.97;1.90;;;26.10;98.30;;;;;;4958521;28;20487;-87
2022/07/29 13:27:58;;;;;;;11.48;2.00;;;25.90;97.20;;;;;;4941446;29;20043;-85
2022/07/29 13:30:26;;;;;;;6.15;2.10;;;25.70;97.00;;;;;;4951851;29;20055;-86
2022/07/29 13:32:52;;;;;;;5.93;2.05;;;25.40;97.30;;;;;;4951388;29;20054;-86
2022/07/29 13:35:19;;;;;;;6.38;1.83;;;25.20;97.50;;;;;;4958324;29;20054;-86
2022/07/29 13:37:45;;;;;;;7.82;2.00;;;25.10;97.70;;;;;;4957999;29;20047;-85
2022/07/29 13:40:11;;;;;;;10.32;2.35;;;25.10;98.00;;;;;;4957682;29;20047;-84
2022/07/29 13:42:37;;;;;;;4.43;1.83;;;25.20;98.50;;;;;;4941009;29;20514;-84
2022/07/29 13:45:04;;;;;;;7.85;2.13;;;25.30;98.40;;;;;;4957802;29;20039;-84
2022/07/29 13:47:30;;;;;;;5.82;2.22;;;25.50;98.70;;;;;;4940965;29;20062;-84
2022/07/29 13:49:56;;;;;;;4.43;1.98;;;25.60;98.10;;;;;;4956890;29;20043;-85
2022/07/29 13:52:21;;;;;;;5.88;2.08;;;25.60;97.90;;;;;;4956381;28;20047;-87
2022/07/29 13:54:48;;;;;;;4.80;2.20;;;25.70;98.50;;;;;;4956985;28;20155;-87
2022/07/29 13:57:14;;;;;;;6.55;1.77;;;25.70;97.90;;;;;;4956874;29;20046;-83
2022/07/29 13:59:43;;;;;;;9.35;2.03;;;25.90;98.80;;;;;;4956568;29;20480;-86
2022/07/29 14:02:10;;;;;;;5.80;1.70;;;26.00;99.40;;;;;;4940325;29;20074;-85
2022/07/29 14:04:36;;;;;;;3.08;1.40;;;26.20;98.50;;;;;;4956716;29;20511;-83
2022/07/29 14:07:03;;;;;;;5.85;1.60;;;26.30;98.00;;;;;;4955893;29;20050;-85
2022/07/29 14:09:28;;;;;;;3.92;1.50;;;26.40;96.70;;;;;;4956396;29;20051;-86
2022/07/29 14:11:54;;;;;;;6.97;1.50;;;26.40;95.20;;;;;;4957570;28;20390;-85
2022/07/29 14:14:20;;;;;;;6.10;1.58;;;26.40;94.50;;;;;;4940533;29;20079;-85
2022/07/29 14:16:46;;;;;;;6.88;1.77;;;26.40;93.60;;;;;;4957355;28;20039;-86
2022/07/29 14:19:12;;;;;;;5.93;1.70;;;26.40;93.40;;;;;;4957244;28;20444;-86
2022/07/29 14:21:38;;;;;;;4.38;1.60;;;26.40;92.40;;;;;;4959113;28;20129;-84
2022/07/29 14:24:05;;;;;;;5.53;1.90;;;26.40;92.20;;;;;;4957329;28;20518;-86
2022/07/29 14:26:30;;;;;;;5.38;1.60;;;26.30;91.70;;;;;;4957256;28;20050;-86
2022/07/29 14:28:56;;;;;;;6.15;1.60;;;26.20;91.70;;;;;;4956576;29;20051;-85
2022/07/29 14:31:22;;;;;;;6.20;1.50;;;26.20;91.80;;;;;;4956578;29;20047;-85
2022/07/29 14:33:48;;;;;;;4.53;1.92;;;26.10;91.50;;;;;;4940318;29;20402;-85
2022/07/29 14:36:14;;;;;;;4.90;1.85;;;26.10;91.50;;;;;;4957728;28;20039;-85
2022/07/29 14:38:40;;;;;;;5.00;1.65;;;26.10;91.60;;;;;;4955946;29;20047;-88
2022/07/29 14:41:07;;;;;;;6.78;1.95;;;26.20;92.60;;;;;;4956129;29;20047;-84
2022/07/29 14:43:34;;;;;;;6.95;2.00;;;26.20;93.00;;;;;;4956426;29;20058;-86
2022/07/29 14:46:01;;;;;;;8.52;2.03;;;26.20;93.00;;;;;;4957864;28;20043;-85
2022/07/29 14:48:26;;;;;;;5.03;2.30;;;26.30;93.40;;;;;;4940106;29;20130;-85
2022/07/29 14:50:52;;;;;;;5.63;1.80;;;26.40;93.20;;;;;;4955306;29;20083;-82
2022/07/29 14:53:18;;;;;;;4.65;2.08;;;26.40;92.70;;;;;;4955936;29;20050;-84
2022/07/29 14:55:44;;;;;;;7.95;1.95;;;26.30;92.30;;;;;;4957254;28;20503;-87
2022/07/29 14:58:10;;;;;;;8.00;2.40;;;26.20;92.70;;;;;;4955669;29;20494;-84
2022/07/29 15:00:36;;;;;;;5.53;2.70;;;26.10;92.40;;;;;;4956607;29;20087;-87
2022/07/29 15:03:03;;;;;;;4.32;1.73;;;25.80;92.70;;;;;;4941439;29;20182;-88
2022/07/29 15:05:30;;;;;;;6.95;2.35;;;25.60;93.40;;;;;;4957191;28;20039;-85
2022/07/29 15:07:57;;;;;;;5.32;2.20;;;25.40;93.30;;;;;;4956670;29;20503;-86
2022/07/29 15:10:22;;;;;;;7.80;2.20;;;25.20;93.70;;;;;;4957482;28;20122;-86
2022/07/29 15:12:48;;;;;;;4.72;2.20;;;25.20;94.60;;;;;;4956143;29;20083;-84
2022/07/29 15:15:14;;;;;;;7.20;2.17;;;25.40;94.60;;;;;;4939980;29;20121;-87
2022/07/29 15:17:40;;;;;;;6.40;2.00;;;25.60;94.30;;;;;;4955330;29;20043;-86
2022/07/29 15:20:06;;;;;;;7.70;2.20;;;25.70;93.70;;;;;;4955125;29;20047;-87
2022/07/29 15:22:32;;;;;;;5.68;2.15;;;25.80;93.70;;;;;;4939466;29;20439;-84
2022/07/29 15:24:57;;;;;;;4.90;1.90;;;25.80;93.70;;;;;;4956410;29;20042;-85
2022/07/29 15:27:23;;;;;;;6.80;2.08;;;25.90;93.70;;;;;;4940070;29;20039;-86
2022/07/29 15:29:49;;;;;;;6.93;2.30;;;25.90;93.90;;;;;;4956535;28;20074;-81
2022/07/29 15:32:14;;;;;;;7.25;2.30;;;26.00;93.30;;;;;;4955511;29;20114;-84
2022/07/29 15:34:40;;;;;;;6.07;2.47;;;26.00;93.50;;;;;;4955126;29;20130;-85
2022/07/29 15:37:06;;;;;;;8.35;2.55;;;25.90;93.40;;;;;;4956279;28;20047;-79
2022/07/29 15:39:32;;;;;;;4.65;2.08;;;25.90;93.40;;;;;;4955941;28;20055;-84
2022/07/29 15:41:59;;;;;;;6.22;1.75;;;25.90;93.60;;;;;;4955892;28;20101;-84
2022/07/29 15:44:26;;;;;;;8.18;2.15;;;26.00;94.40;;;;;;4938415;29;20039;-84
2022/07/29 15:47:07;;;;;;;6.13;1.58;;;26.10;92.20;;;;;;4955964;28;20115;-84
2022/07/29 15:49:40;;;;;;;5.55;1.60;;;26.20;91.60;;;;;;4954474;29;20563;-85
2022/07/29 15:52:18;;;;;;;4.13;1.60;;;26.10;91.20;;;;;;4954434;29;20039;-85
2022/07/29 15:54:44;;;;;;;4.72;2.03;;;26.20;92.20;;;;;;4938348;29;20043;-86
2022/07/29 15:57:10;;;;;;;5.63;1.80;;;26.20;91.50;;;;;;4954676;29;20043;-85
2022/07/29 15:59:36;;;;;;;4.25;1.60;;;26.20;91.00;;;;;;4938749;29;20107;-83
2022/07/29 16:02:02;;;;;;;5.55;1.95;;;26.30;91.10;;;;;;4955519;28;20039;-85
2022/07/29 16:04:28;;;;;;;7.55;1.77;;;26.30;91.30;;;;;;4955647;28;20471;-85
2022/07/29 16:06:54;;;;;;;5.50;1.75;;;26.20;91.20;;;;;;4938646;29;20039;-83
2022/07/29 16:09:20;;;;;;;7.35;2.17;;;26.20;91.10;;;;;;4939129;29;20102;-85
2022/07/29 16:11:49;;;;;;;7.20;1.90;;;26.10;91.40;;;;;;4939191;29;20101;-85
2022/07/29 16:14:53;;;;;;;4.72;1.80;;;26.10;91.60;;;;;;4938937;29;20403;-86
2022/07/29 16:18:18;;;;;;;;;;;;;;;;;;;;;
2022/07/29 16:28:33;;;;;;;5.32;1.80;;;26.00;91.70;;;;;;1281283;26;20443;-87
2022/07/29 16:30:59;;;;;;;5.20;2.00;;;26.00;91.70;;;;;;4975729;28;20078;-87
2022/07/29 16:33:25;;;;;;;5.55;2.00;;;25.90;91.70;;;;;;4958422;29;20483;-84
2022/07/29 16:35:51;;;;;;;5.78;2.38;;;26.00;92.20;;;;;;4958428;29;20348;-86
2022/07/29 16:38:18;;;;;;;4.13;1.58;;;26.00;91.90;;;;;;4958669;29;20035;-85
2022/07/29 17:22:20;;;;;;;5.65;2.10;;;25.20;90.70;;;;;;4681235;23;20051;-86
2022/07/29 17:25:19;;;;;;;3.70;1.73;;;25.10;90.30;;;;;;4959188;28;20081;-86
2022/07/29 17:27:52;;;;;;;6.70;2.03;;;25.00;90.00;;;;;;4929049;28;20043;-84
2022/07/29 17:30:18;;;;;;;3.13;1.67;;;25.00;90.60;;;;;;4959572;28;20502;-85
2022/07/29 17:37:35;;;;;;;;;;;;;;;;;;;;;
2022/07/29 18:08:38;;;;;;;7.20;2.50;;;24.30;93.80;;;;;;5312938;23;20486;-85
2022/07/29 18:11:05;;;;;;;6.25;2.33;;;24.30;93.80;;;;;;4976680;28;20034;-86
2022/07/29 18:13:31;;;;;;;5.88;1.95;;;24.30;94.00;;;;;;4959817;28;20039;-87
2022/07/29 18:15:58;;;;;;;6.82;1.95;;;24.30;94.00;;;;;;4960417;28;20038;-85
2022/07/29 18:18:34;;;;;;;4.28;1.73;;;24.30;94.30;;;;;;4959910;28;20101;-84
2022/07/29 18:21:05;;;;;;;7.05;2.03;;;24.20;94.50;;;;;;4975238;28;20491;-84
2022/07/29 18:31:01;;;;;;;6.68;2.20;;;24.00;95.60;;;;;;4937679;28;20038;-85
2022/07/29 18:34:16;;;;;;;3.58;1.90;;;23.90;96.00;;;;;;4919933;29;20165;-85
2022/07/29 18:36:44;;;;;;;;;;;;;;;;;;;;;
2022/07/29 18:39:59;;;;;;;;;;;;;;;;;;;;;
2022/07/29 18:46:34;;;;;;;8.77;2.63;;;23.50;97.60;;;;;;4948841;29;20047;-87
2022/07/29 18:50:03;;;;;;;;;;;;;;;;;;;;;
2022/07/29 18:56:22;;;;;;;;;;;;;;;;;;;;;
2022/07/29 18:59:09;;;;;;;;;;;;;;;;;;;;;
2022/07/29 19:01:36;;;;;;;6.80;2.95;;;22.80;99.90;;;;;;4990723;28;20391;-85
2022/07/29 19:04:03;;;;;;;6.25;2.92;;;22.70;99.90;;;;;;4975593;28;20121;-84
2022/07/29 19:10:13;;;;;;;8.75;3.33;;;22.70;99.90;;;;;;4975504;28;20053;-85
2022/07/29 19:12:59;;;;;;;9.02;3.50;;;22.60;99.90;;;;;;4958651;28;20050;-84
2022/07/29 19:16:22;;;;;;;;;;;;;;;;;;;;;
2022/07/29 19:19:38;;;;;;;7.90;3.28;;;22.40;99.90;;;;;;4953627;28;20510;-85
2022/07/29 19:26:37;;;;;;;;;;;;;;;;;;;;;
2022/07/29 19:35:34;;;;;;;6.70;3.50;;;22.00;99.90;;;;;;4935401;29;20066;-82
2022/07/29 19:46:27;;;;;;;10.70;4.05;;;21.70;99.90;;;;;;4889247;29;20076;-84
2022/07/29 19:49:01;;;;;;;9.50;4.38;;;21.60;99.90;;;;;;4867125;29;20041;-84
2022/07/29 19:52:20;;;;;;;8.55;4.70;;;21.50;99.90;;;;;;4918493;29;20062;-85
2022/07/29 19:54:40;;;;;;;;;;;;;;;;;;;;;
2022/07/29 20:01:10;;;;;;;7.88;3.88;;;21.30;99.90;;;;;;4786430;29;20132;-82
2022/07/29 20:03:38;;;;;;;9.35;4.63;;;21.10;99.90;;;;;;4909727;29;20069;-84
2022/07/29 20:06:04;;;;;;;7.70;3.80;;;21.10;99.90;;;;;;4917010;29;20047;-85
2022/07/29 20:08:30;;;;;;;8.73;4.07;;;21.10;99.90;;;;;;4916649;29;20040;-81
2022/07/29 20:10:55;;;;;;;8.82;4.20;;;21.00;99.90;;;;;;4916414;29;20044;-86
2022/07/29 20:13:27;;;;;;;12.10;4.80;;;21.00;99.90;;;;;;4917855;29;20040;-86
2022/07/29 20:15:53;;;;;;;10.35;4.35;;;20.90;99.90;;;;;;4918451;29;20036;-89
2022/07/29 20:18:21;;;;;;;10.07;3.80;;;20.80;99.90;;;;;;4919915;29;20188;-92
2022/07/29 20:21:03;;;;;;;;;;;;;;;;;;;;;
2022/07/29 20:23:29;;;;;;;6.75;3.63;;;20.70;99.90;;;;;;4918391;29;20048;-88
2022/07/29 20:25:55;;;;;;;12.07;4.60;;;20.60;99.90;;;;;;4919542;29;20040;-85
2022/07/29 20:28:20;;;;;;;9.65;4.28;;;20.60;99.90;;;;;;4903640;29;20036;-89
2022/07/29 20:31:15;;;;;;;7.60;3.88;;;20.50;99.90;;;;;;4917779;29;20479;-87
2022/07/29 20:33:41;;;;;;;8.27;4.30;;;20.40;99.90;;;;;;4917262;29;20067;-88
2022/07/29 20:36:40;;;;;;;7.97;4.13;;;20.40;99.90;;;;;;4903232;29;20056;-89
2022/07/29 20:39:09;;;;;;;10.70;4.68;;;20.40;99.90;;;;;;4902277;29;20132;-81
2022/07/29 20:41:35;;;;;;;5.75;3.45;;;20.30;99.90;;;;;;4931053;29;20123;-83
2022/07/29 20:44:01;;;;;;;10.02;4.10;;;20.20;99.90;;;;;;4935879;29;20038;-84